Anchor Bay, California
Current Conditions -  °F | °C
As of 11:08 AM on Thursday 18 Dec 2014 (Local Time) from KUKI Reporting Station
Overcast Overcast  
Wind Chill: 52°   Ceiling: 2100
Heat Index: 52°   Visibility: 10mi
Dew Point: 47°   Wind: 5mph
Humidity: 83%   Direction: 150°SSE
Pressure: 30.16"   Gusts: NA
Location:  38.8361°N, 123.43°W
Report Text: KUKI 181908Z AUTO 15004KT 10SM BKN021 OVC037 11/08 A3016 RMK AO2 T01110083
Loading
Personal Weather Stations






























Interactive Weather Map New forecast layout! Learn more

10-Day Weather Forecast

Advertisements
Track Severe Weather on mobile